createdAt,value
2019-05-22T00:00:44.230Z,38.20
2019-05-22T00:03:24.118Z,40.47
2019-05-22T00:05:55.979Z,38.67
2019-05-22T00:08:26.298Z,43.20
2019-05-22T00:10:57.398Z,41.80
2019-05-22T00:13:34.757Z,38.30
2019-05-22T00:16:04.226Z,42.93
2019-05-22T00:18:33.673Z,43.53
2019-05-22T00:21:04.592Z,45.87
2019-05-22T00:23:34.569Z,45.43
2019-05-22T00:26:04.021Z,44.07
2019-05-22T00:28:33.515Z,45.33
2019-05-22T00:31:02.977Z,47.53
2019-05-22T00:33:36.100Z,45.37
2019-05-22T00:36:04.499Z,44.60
2019-05-22T00:38:34.152Z,48.17
2019-05-22T00:41:11.914Z,43.50
2019-05-22T00:43:44.585Z,46.73
2019-05-22T00:46:16.195Z,46.70
2019-05-22T00:48:47.917Z,49.40
2019-05-22T00:51:31.407Z,46.57
2019-05-22T00:54:03.593Z,47.27
2019-05-22T00:56:34.736Z,42.97
2019-05-22T00:59:07.541Z,45.10
2019-05-22T01:01:46.093Z,44.37
2019-05-22T01:04:17.866Z,46.03
2019-05-22T01:06:48.633Z,41.97
2019-05-22T01:09:19.924Z,45.03
2019-05-22T01:11:51.701Z,42.07
2019-05-22T01:14:23.765Z,43.50
2019-05-22T01:16:53.511Z,41.97
2019-05-22T01:19:24.156Z,38.63
2019-05-22T01:21:55.416Z,42.73
2019-05-22T01:24:25.332Z,41.87
2019-05-22T01:26:56.868Z,43.13
2019-05-22T01:29:26.435Z,43.87
2019-05-22T01:32:03.867Z,42.73
2019-05-22T01:34:35.587Z,54.67
2019-05-22T01:37:07.474Z,58.20
2019-05-22T01:39:47.915Z,57.73
2019-05-22T01:42:21.332Z,56.37
2019-05-22T01:45:04.602Z,59.43
2019-05-22T01:47:38.794Z,53.40
2019-05-22T01:50:10.341Z,57.67
2019-05-22T01:52:40.571Z,62.23
2019-05-22T01:55:12.006Z,61.70
2019-05-22T01:57:41.949Z,60.40
2019-05-22T02:00:13.560Z,68.37
2019-05-22T02:02:43.978Z,64.33
2019-05-22T02:05:14.680Z,61.50
2019-05-22T02:07:46.258Z,63.73
2019-05-22T02:10:20.930Z,67.20
2019-05-22T02:12:54.832Z,61.00
2019-05-22T02:15:25.058Z,59.00
2019-05-22T02:17:56.569Z,61.13
2019-05-22T02:20:27.002Z,57.47
2019-05-22T02:22:57.542Z,51.67
2019-05-22T02:25:29.337Z,55.63
2019-05-22T02:27:59.003Z,47.90
2019-05-22T02:30:30.076Z,48.50
2019-05-22T02:33:01.245Z,54.00
2019-05-22T02:35:30.942Z,42.97
2019-05-22T02:38:01.262Z,44.40
2019-05-22T02:40:34.016Z,42.43
2019-05-22T02:43:03.905Z,46.03
2019-05-22T02:45:34.045Z,39.73
2019-05-22T02:48:06.112Z,42.23
2019-05-22T02:50:37.679Z,42.97
2019-05-22T02:53:09.844Z,39.87
2019-05-22T02:55:40.405Z,40.70
2019-05-22T02:58:11.100Z,40.07
2019-05-22T03:00:55.981Z,38.53
2019-05-22T03:03:26.871Z,43.17
2019-05-22T03:05:56.348Z,40.60
2019-05-22T03:08:29.440Z,40.07
2019-05-22T03:10:59.264Z,37.70
2019-05-22T03:13:42.191Z,39.13
2019-05-22T03:16:12.506Z,39.30
2019-05-22T03:18:44.309Z,42.87
2019-05-22T03:21:13.835Z,36.33
2019-05-22T03:23:43.634Z,35.23
2019-05-22T03:26:14.854Z,35.13
2019-05-22T03:28:45.902Z,33.40
2019-05-22T03:31:16.307Z,37.30
2019-05-22T03:33:47.312Z,34.30
2019-05-22T03:36:18.859Z,34.20
2019-05-22T03:38:48.730Z,35.57
2019-05-22T03:41:18.779Z,36.87
2019-05-22T03:43:50.848Z,35.83
2019-05-22T03:46:24.439Z,38.20
2019-05-22T03:48:54.266Z,32.47
2019-05-22T03:51:25.600Z,40.37
2019-05-22T03:53:55.067Z,35.17
2019-05-22T03:56:24.879Z,35.47
2019-05-22T03:58:55.343Z,36.77
2019-05-22T04:01:26.123Z,38.70
2019-05-22T04:03:56.741Z,44.63
2019-05-22T04:06:27.548Z,43.77
2019-05-22T04:09:00.388Z,49.67
2019-05-22T04:11:33.329Z,44.93
2019-05-22T04:14:03.050Z,50.10
2019-05-22T04:16:33.386Z,49.07
2019-05-22T04:19:05.115Z,49.30
2019-05-22T04:21:35.434Z,53.77
2019-05-22T04:24:05.006Z,53.80
2019-05-22T04:26:35.021Z,49.07
2019-05-22T04:29:05.231Z,46.60
2019-05-22T04:31:51.237Z,49.93
2019-05-22T04:34:20.881Z,47.47
2019-05-22T04:36:50.392Z,53.90
2019-05-22T04:39:22.368Z,53.17
2019-05-22T04:41:52.697Z,54.47
2019-05-22T04:44:22.347Z,59.83
2019-05-22T04:46:52.142Z,59.67
2019-05-22T04:49:21.672Z,61.57
2019-05-22T04:51:51.124Z,61.10
2019-05-22T04:54:20.595Z,59.87
2019-05-22T04:56:51.504Z,61.13
2019-05-22T04:59:21.225Z,53.50
2019-05-22T05:01:50.949Z,60.07
2019-05-22T05:04:21.044Z,58.80
2019-05-22T05:06:51.053Z,62.57
2019-05-22T05:09:20.595Z,60.03
2019-05-22T05:11:50.540Z,58.77
2019-05-22T05:14:20.006Z,59.40
2019-05-22T05:16:49.470Z,65.47
2019-05-22T05:19:19.109Z,59.43
2019-05-22T05:21:48.601Z,60.47
2019-05-22T05:24:18.169Z,64.00
2019-05-22T05:26:47.848Z,65.00
2019-05-22T05:29:28.567Z,68.63
2019-05-22T05:31:58.960Z,64.67
2019-05-22T05:34:31.609Z,63.20
2019-05-22T05:37:02.244Z,60.90
2019-05-22T05:39:37.695Z,65.00
2019-05-22T05:42:07.157Z,60.47
2019-05-22T05:44:36.994Z,60.40
2019-05-22T05:47:07.044Z,55.80
2019-05-22T05:49:36.570Z,47.47
2019-05-22T05:52:07.069Z,48.10
2019-05-22T05:54:37.704Z,44.30
2019-05-22T05:57:34.788Z,44.70
2019-05-22T06:00:08.036Z,46.37
2019-05-22T06:02:37.483Z,47.90
2019-05-22T06:05:08.453Z,45.07
2019-05-22T06:07:38.442Z,49.47
2019-05-22T06:10:25.739Z,48.63
2019-05-22T06:12:55.816Z,51.17
2019-05-22T06:15:46.925Z,51.43
2019-05-22T06:18:26.620Z,56.13
2019-05-22T06:21:03.949Z,56.33
2019-05-22T06:23:39.836Z,52.67
2019-05-22T06:26:09.855Z,51.37
2019-05-22T06:28:39.689Z,51.30
2019-05-22T06:31:15.217Z,51.70
2019-05-22T06:33:44.957Z,52.13
2019-05-22T06:36:17.023Z,56.20
2019-05-22T06:38:52.464Z,59.23
2019-05-22T06:41:24.122Z,65.10
2019-05-22T06:44:19.520Z,77.07
2019-05-22T06:46:49.043Z,78.10
2019-05-22T06:49:36.288Z,74.07
2019-05-22T06:52:07.540Z,83.57
2019-05-22T06:54:38.246Z,81.43
2019-05-22T06:57:10.190Z,84.27
2019-05-22T06:59:41.073Z,73.33
2019-05-22T07:02:13.005Z,77.40
2019-05-22T07:04:42.714Z,66.80
2019-05-22T07:07:14.150Z,63.33
2019-05-22T07:09:44.828Z,64.97
2019-05-22T07:12:15.537Z,62.30
2019-05-22T07:14:54.662Z,65.10
2019-05-22T07:17:25.400Z,62.67
2019-05-22T07:19:55.614Z,63.10
2019-05-22T07:22:25.935Z,63.53
2019-05-22T07:24:55.678Z,68.43
2019-05-22T07:27:26.870Z,74.27
2019-05-22T07:29:56.614Z,75.53
2019-05-22T07:32:30.534Z,77.97
2019-05-22T07:34:57.744Z,75.97
2019-05-22T07:37:27.297Z,66.43
2019-05-22T07:39:56.746Z,73.90
2019-05-22T07:42:26.233Z,71.20
2019-05-22T07:44:56.073Z,66.60
2019-05-22T07:47:26.276Z,62.23
2019-05-22T07:49:55.836Z,59.03
2019-05-22T07:52:25.996Z,64.20
2019-05-22T07:54:55.747Z,64.00
2019-05-22T07:57:25.753Z,65.70
2019-05-22T07:59:55.564Z,57.97
2019-05-22T08:02:26.481Z,58.37
2019-05-22T08:04:55.963Z,58.50
2019-05-22T08:07:27.239Z,58.90
2019-05-22T08:09:56.778Z,57.13
2019-05-22T08:12:26.782Z,57.60
2019-05-22T08:14:56.270Z,56.73
2019-05-22T08:17:27.068Z,59.10
2019-05-22T08:19:56.903Z,55.80
2019-05-22T08:22:26.541Z,57.87
2019-05-22T08:24:56.082Z,56.97
2019-05-22T08:27:26.009Z,58.77
2019-05-22T08:29:57.155Z,59.60
2019-05-22T08:32:26.643Z,60.40
2019-05-22T08:34:56.384Z,59.53
2019-05-22T08:37:29.445Z,70.10
2019-05-22T08:40:00.073Z,66.13
2019-05-22T08:42:30.960Z,65.17
2019-05-22T08:45:01.556Z,60.53
2019-05-22T08:47:31.292Z,61.77
2019-05-22T08:50:01.289Z,61.00
2019-05-22T08:52:31.383Z,58.27
2019-05-22T08:55:01.388Z,53.57
2019-05-22T08:57:31.591Z,53.67
2019-05-22T09:00:01.061Z,46.77
2019-05-22T09:02:30.511Z,48.90
2019-05-22T09:05:00.345Z,45.47
2019-05-22T09:07:30.988Z,43.70
2019-05-22T09:10:00.453Z,46.53
2019-05-22T09:12:30.473Z,43.57
2019-05-22T09:15:00.105Z,44.70
2019-05-22T09:17:29.937Z,47.57
2019-05-22T09:19:59.478Z,50.77
2019-05-22T09:22:39.950Z,49.60
2019-05-22T09:25:00.954Z,49.87
2019-05-22T09:27:30.642Z,54.70
2019-05-22T09:30:00.444Z,53.03
2019-05-22T09:32:29.897Z,54.73
2019-05-22T09:34:59.359Z,50.70
2019-05-22T09:37:29.008Z,52.90
2019-05-22T09:39:58.503Z,51.70
2019-05-22T09:42:28.935Z,61.57
2019-05-22T09:44:58.700Z,54.10
2019-05-22T09:47:28.432Z,54.63
2019-05-22T09:49:58.319Z,53.13
2019-05-22T09:52:28.134Z,53.00
2019-05-22T09:54:57.612Z,50.43
2019-05-22T09:57:29.353Z,50.60
2019-05-22T09:59:58.825Z,48.53
2019-05-22T10:02:30.582Z,53.17
2019-05-22T10:05:00.029Z,50.00
2019-05-22T10:07:30.098Z,55.37
2019-05-22T10:09:59.636Z,58.17
2019-05-22T10:12:29.551Z,54.63
2019-05-22T10:14:59.311Z,56.57
2019-05-22T10:17:28.802Z,56.03
2019-05-22T10:19:58.872Z,57.83
2019-05-22T10:22:33.467Z,60.17
2019-05-22T10:25:14.639Z,56.40
2019-05-22T10:27:35.474Z,57.67
2019-05-22T10:30:13.763Z,61.40
2019-05-22T10:32:43.591Z,59.23
2019-05-22T10:35:13.572Z,66.20
2019-05-22T10:37:43.203Z,61.97
2019-05-22T10:40:13.976Z,62.53
2019-05-22T10:42:45.148Z,61.30
2019-05-22T10:45:15.230Z,54.43
2019-05-22T10:47:45.140Z,62.17
2019-05-22T10:50:15.097Z,64.03
2019-05-22T10:52:44.737Z,62.57
2019-05-22T10:55:14.458Z,65.53
2019-05-22T10:57:44.896Z,69.70
2019-05-22T11:00:15.976Z,71.17
2019-05-22T11:02:46.062Z,68.33
2019-05-22T11:05:16.763Z,68.23
2019-05-22T11:07:46.655Z,66.60
2019-05-22T11:10:18.059Z,65.40
2019-05-22T11:12:47.745Z,63.60
2019-05-22T11:15:17.481Z,68.77
2019-05-22T11:17:47.152Z,68.07
2019-05-22T11:20:17.714Z,64.93
2019-05-22T11:22:47.558Z,67.70
2019-05-22T11:25:17.633Z,61.20
2019-05-22T11:27:47.188Z,58.70
2019-05-22T11:30:18.479Z,62.63
2019-05-22T11:32:48.804Z,55.73
2019-05-22T11:35:19.883Z,55.87
2019-05-22T11:37:49.362Z,59.23
2019-05-22T11:40:20.269Z,50.40
2019-05-22T11:42:51.854Z,46.97
2019-05-22T11:45:22.327Z,50.43
2019-05-22T11:47:52.260Z,49.57
2019-05-22T11:50:22.314Z,49.73
2019-05-22T11:52:51.765Z,49.87
2019-05-22T11:55:21.311Z,44.00
2019-05-22T11:57:51.819Z,44.40
2019-05-22T12:00:23.170Z,40.97
2019-05-22T12:02:53.285Z,44.90
2019-05-22T12:05:22.923Z,43.70
2019-05-22T12:07:52.650Z,43.13
2019-05-22T12:10:23.238Z,45.97
2019-05-22T12:12:53.425Z,46.13
2019-05-22T12:15:25.018Z,44.77
2019-05-22T12:17:54.906Z,46.40
2019-05-22T12:20:26.105Z,43.87
2019-05-22T12:22:56.821Z,43.60
2019-05-22T12:25:26.432Z,43.37
2019-05-22T12:27:56.659Z,44.80
2019-05-22T12:30:26.131Z,41.50
2019-05-22T12:32:56.331Z,43.80
2019-05-22T12:35:26.566Z,43.37
2019-05-22T12:37:57.269Z,42.97
2019-05-22T12:40:29.813Z,37.30
2019-05-22T12:43:00.153Z,41.80
2019-05-22T12:45:31.132Z,42.13
2019-05-22T12:48:01.466Z,40.10
2019-05-22T12:50:31.589Z,39.57
2019-05-22T12:53:03.366Z,40.73
2019-05-22T12:55:33.072Z,42.13
2019-05-22T12:58:03.493Z,36.00
2019-05-22T13:00:34.803Z,43.73
2019-05-22T13:03:04.862Z,39.53
2019-05-22T13:05:36.124Z,42.00
2019-05-22T13:08:05.748Z,41.13
2019-05-22T13:10:36.108Z,39.07
2019-05-22T13:13:05.632Z,40.17
2019-05-22T13:15:36.736Z,37.47
2019-05-22T13:18:07.228Z,42.80
2019-05-22T13:20:43.552Z,42.37
2019-05-22T13:23:12.586Z,40.17
2019-05-22T13:25:46.804Z,37.77
2019-05-22T13:28:17.691Z,40.57
2019-05-22T13:30:51.976Z,38.17
2019-05-22T13:33:24.667Z,32.53
2019-05-22T13:35:56.297Z,35.20
2019-05-22T13:38:25.933Z,39.87
2019-05-22T13:40:56.157Z,37.10
2019-05-22T13:43:27.051Z,35.63
2019-05-22T13:45:56.880Z,36.03
2019-05-22T13:48:26.607Z,36.33
2019-05-22T13:50:57.123Z,35.43
2019-05-22T13:53:27.799Z,38.83
2019-05-22T13:55:58.059Z,35.00
2019-05-22T13:58:28.283Z,36.60
2019-05-22T14:00:58.151Z,37.10
2019-05-22T14:03:27.818Z,39.50
2019-05-22T14:05:58.133Z,34.87
2019-05-22T14:08:27.596Z,35.40
2019-05-22T14:10:57.660Z,41.67
2019-05-22T14:13:27.799Z,36.30
2019-05-22T14:15:57.928Z,42.80
2019-05-22T14:18:28.126Z,40.80
2019-05-22T14:20:57.642Z,40.27
2019-05-22T14:23:27.105Z,37.07
2019-05-22T14:25:56.589Z,36.60
2019-05-22T14:28:27.295Z,36.40
2019-05-22T14:30:57.705Z,32.50
2019-05-22T14:33:28.186Z,31.87
2019-05-22T14:35:58.555Z,36.70
2019-05-22T14:38:28.478Z,34.67
2019-05-22T14:40:58.034Z,38.70
2019-05-22T14:43:27.851Z,36.67
2019-05-22T14:45:57.501Z,42.50
2019-05-22T14:48:27.029Z,44.23
2019-05-22T14:50:56.683Z,43.23
2019-05-22T14:53:27.284Z,45.67
2019-05-22T14:55:57.630Z,47.30
2019-05-22T14:58:27.479Z,43.73
2019-05-22T15:00:56.912Z,50.10
2019-05-22T15:03:26.566Z,52.00
2019-05-22T15:05:56.301Z,49.47
2019-05-22T15:08:25.815Z,45.37
2019-05-22T15:10:59.242Z,47.13
2019-05-22T15:13:28.882Z,47.30
2019-05-22T15:15:58.602Z,46.60
2019-05-22T15:18:29.065Z,44.60
2019-05-22T15:21:02.505Z,50.63
2019-05-22T15:23:33.511Z,54.37
2019-05-22T15:26:03.378Z,52.63
2019-05-22T15:28:33.261Z,51.87
2019-05-22T15:31:03.098Z,53.00
2019-05-22T15:33:33.867Z,58.97
2019-05-22T15:36:06.736Z,58.93
2019-05-22T15:38:38.590Z,61.27
2019-05-22T15:41:08.588Z,55.00
2019-05-22T15:43:39.227Z,52.63
2019-05-22T15:46:10.317Z,52.03
2019-05-22T15:48:40.383Z,60.77
2019-05-22T15:51:10.023Z,56.07
2019-05-22T15:53:39.769Z,61.47
2019-05-22T15:56:09.824Z,55.67
2019-05-22T15:58:41.275Z,56.30
2019-05-22T16:01:11.092Z,64.27
2019-05-22T16:03:42.772Z,57.83
2019-05-22T16:06:13.725Z,68.50
2019-05-22T16:08:43.719Z,58.23
2019-05-22T16:11:14.727Z,51.53
2019-05-22T16:13:46.232Z,53.03
2019-05-22T16:16:16.675Z,51.90
2019-05-22T16:18:47.519Z,47.40
2019-05-22T16:21:17.918Z,55.20
2019-05-22T16:23:47.768Z,57.87
2019-05-22T16:26:17.891Z,55.50
2019-05-22T16:28:48.745Z,57.17
2019-05-22T16:31:21.489Z,58.07
2019-05-22T16:33:53.530Z,54.57
2019-05-22T16:36:24.024Z,55.83
2019-05-22T16:38:54.721Z,55.83
2019-05-22T16:41:24.694Z,56.70
2019-05-22T16:43:55.611Z,58.17
2019-05-22T16:46:25.633Z,57.37
2019-05-22T16:48:56.003Z,61.40
2019-05-22T16:51:26.408Z,55.73
2019-05-22T16:53:59.438Z,54.07
2019-05-22T16:56:29.540Z,58.83
2019-05-22T16:58:59.349Z,59.70
2019-05-22T17:01:28.984Z,58.37
2019-05-22T17:04:00.627Z,59.50
2019-05-22T17:06:30.889Z,66.20
2019-05-22T17:09:01.415Z,64.53
2019-05-22T17:11:32.453Z,68.00
2019-05-22T17:14:03.305Z,65.43
2019-05-22T17:16:34.672Z,62.90
2019-05-22T17:19:25.809Z,58.90
2019-05-22T17:21:43.291Z,64.57
2019-05-22T17:24:14.592Z,51.73
2019-05-22T17:26:44.592Z,60.13
2019-05-22T17:29:14.085Z,56.13
2019-05-22T17:31:43.758Z,58.57
2019-05-22T17:34:32.718Z,54.97
2019-05-22T17:37:08.611Z,57.90
2019-05-22T17:39:40.774Z,64.00
2019-05-22T17:42:13.159Z,57.50
2019-05-22T17:44:45.646Z,63.43
2019-05-22T17:47:17.202Z,69.43
2019-05-22T17:49:47.020Z,66.33
2019-05-22T17:52:20.361Z,61.47
2019-05-22T17:54:51.338Z,69.40
2019-05-22T17:57:22.133Z,62.00
2019-05-22T17:59:52.687Z,62.17
2019-05-22T18:02:23.880Z,69.27
2019-05-22T18:04:53.359Z,68.97
2019-05-22T18:07:23.395Z,62.53
2019-05-22T18:09:52.943Z,69.33
2019-05-22T18:12:22.421Z,65.73
2019-05-22T18:14:51.916Z,63.30
2019-05-22T18:17:21.411Z,68.47
2019-05-22T18:19:51.164Z,69.47
2019-05-22T18:22:20.866Z,74.03
2019-05-22T18:24:50.419Z,71.50
2019-05-22T18:27:25.118Z,69.53
2019-05-22T18:29:52.965Z,69.83
2019-05-22T18:32:22.977Z,65.67
2019-05-22T18:34:52.495Z,69.97
2019-05-22T18:37:22.019Z,65.97
2019-05-22T18:39:51.524Z,66.77
2019-05-22T18:42:21.344Z,65.60
2019-05-22T18:44:50.858Z,64.50
2019-05-22T18:47:20.841Z,70.40
2019-05-22T18:49:50.362Z,65.93
2019-05-22T18:52:20.482Z,75.03
2019-05-22T18:54:50.045Z,67.37
2019-05-22T18:57:20.481Z,65.97
2019-05-22T18:59:51.225Z,67.67
2019-05-22T19:02:20.867Z,80.40
2019-05-22T19:04:50.724Z,70.87
2019-05-22T19:07:20.271Z,67.60
2019-05-22T19:09:49.828Z,70.47
2019-05-22T19:12:19.535Z,74.83
2019-05-22T19:14:49.645Z,70.77
2019-05-22T19:17:19.322Z,80.27
2019-05-22T19:19:49.902Z,66.57
2019-05-22T19:22:20.245Z,69.20
2019-05-22T19:24:50.005Z,73.50
2019-05-22T19:27:19.877Z,64.87
2019-05-22T19:29:49.537Z,69.03
2019-05-22T19:32:19.660Z,69.13
2019-05-22T19:34:49.234Z,63.57
2019-05-22T19:37:19.192Z,67.17
2019-05-22T19:39:48.681Z,65.80
2019-05-22T19:42:18.424Z,64.23
2019-05-22T19:44:48.099Z,62.93
2019-05-22T19:47:19.797Z,70.40
2019-05-22T19:49:49.780Z,68.23
2019-05-22T19:52:22.559Z,61.13
2019-05-22T19:54:51.246Z,65.07
2019-05-22T19:57:20.853Z,64.23
2019-05-22T19:59:50.407Z,65.17
2019-05-22T20:02:20.692Z,61.17
2019-05-22T20:04:51.346Z,65.83
2019-05-22T20:07:22.026Z,67.37
2019-05-22T20:09:51.881Z,69.43
2019-05-22T20:12:24.835Z,57.37
2019-05-22T20:14:53.159Z,64.83
2019-05-22T20:17:22.831Z,63.57
2019-05-22T20:19:53.340Z,61.07
2019-05-22T20:22:23.405Z,65.20
2019-05-22T20:24:53.567Z,58.77
2019-05-22T20:27:24.414Z,62.97
2019-05-22T20:29:54.142Z,59.50
2019-05-22T20:32:24.281Z,57.13
2019-05-22T20:34:54.067Z,51.53
2019-05-22T20:37:23.735Z,57.87
2019-05-22T20:39:53.493Z,58.47
2019-05-22T20:42:23.583Z,59.13
2019-05-22T20:44:53.538Z,58.17
2019-05-22T20:47:25.374Z,57.50
2019-05-22T20:49:55.215Z,53.07
2019-05-22T20:52:24.977Z,50.77
2019-05-22T20:54:55.927Z,52.57
2019-05-22T20:57:26.387Z,54.33
2019-05-22T20:59:56.841Z,59.97
2019-05-22T21:02:27.177Z,52.23
2019-05-22T21:04:57.548Z,56.27
2019-05-22T21:07:33.568Z,47.97
2019-05-22T21:10:03.819Z,50.80
2019-05-22T21:12:36.129Z,50.20
2019-05-22T21:15:07.449Z,49.63
2019-05-22T21:17:37.595Z,50.33
2019-05-22T21:20:10.742Z,48.00
2019-05-22T21:22:41.053Z,47.53
2019-05-22T21:25:12.097Z,46.60
2019-05-22T21:27:42.567Z,50.87
2019-05-22T21:30:12.683Z,48.27
2019-05-22T21:32:44.086Z,50.93
2019-05-22T21:35:16.405Z,42.27
2019-05-22T21:37:46.411Z,41.23
2019-05-22T21:40:16.714Z,42.60
2019-05-22T21:42:46.663Z,44.07
2019-05-22T21:45:16.402Z,44.30
2019-05-22T21:47:46.234Z,48.67
2019-05-22T21:50:16.710Z,46.53
2019-05-22T21:52:46.185Z,43.60
2019-05-22T21:55:17.922Z,42.53
2019-05-22T21:57:47.971Z,46.57
2019-05-22T22:00:40.648Z,46.90
2019-05-22T22:03:12.978Z,44.33
2019-05-22T22:05:43.493Z,46.47
2019-05-22T22:08:13.415Z,43.37
2019-05-22T22:10:43.161Z,44.63
2019-05-22T22:13:13.075Z,51.13
2019-05-22T22:15:45.590Z,42.47
2019-05-22T22:18:16.008Z,43.97
2019-05-22T22:20:46.103Z,47.20
2019-05-22T22:23:16.482Z,45.83
2019-05-22T22:25:46.341Z,46.20
2019-05-22T22:28:17.642Z,46.10
2019-05-22T22:30:48.782Z,44.77
2019-05-22T22:33:20.369Z,40.90
2019-05-22T22:35:51.057Z,39.03
2019-05-22T22:38:22.046Z,41.73
2019-05-22T22:40:53.544Z,43.00
2019-05-22T22:43:24.332Z,40.57
2019-05-22T22:46:09.239Z,37.20
2019-05-22T22:48:40.458Z,40.97
2019-05-22T22:51:12.506Z,40.23
2019-05-22T22:53:43.669Z,40.60
2019-05-22T22:56:14.519Z,40.23
2019-05-22T22:58:44.680Z,42.57
2019-05-22T23:01:30.722Z,41.33
2019-05-22T23:04:01.029Z,45.00
2019-05-22T23:06:31.129Z,37.53
2019-05-22T23:09:02.024Z,41.67
2019-05-22T23:11:32.727Z,40.83
2019-05-22T23:14:03.403Z,38.63
2019-05-22T23:16:33.099Z,40.30
2019-05-22T23:19:15.761Z,40.90
2019-05-22T23:21:45.493Z,40.77
2019-05-22T23:24:16.659Z,40.17
2019-05-22T23:26:46.139Z,41.17
2019-05-22T23:29:17.673Z,39.00
2019-05-22T23:31:48.488Z,39.70
2019-05-22T23:34:18.882Z,39.10
2019-05-22T23:36:48.612Z,37.93
2019-05-22T23:39:18.753Z,36.33
2019-05-22T23:41:49.084Z,35.40
2019-05-22T23:44:21.508Z,38.30
2019-05-22T23:46:51.421Z,36.93
2019-05-22T23:49:20.884Z,35.97
2019-05-22T23:51:50.406Z,34.50
2019-05-22T23:54:19.881Z,38.73
2019-05-22T23:56:49.630Z,37.33
2019-05-22T23:59:19.590Z,37.07
